createdAt,value
2018-12-04T00:00:39.869Z,81.58
2018-12-04T00:03:09.782Z,82.88
2018-12-04T00:05:39.741Z,82.78
2018-12-04T00:08:09.651Z,83.22
2018-12-04T00:10:39.806Z,82.92
2018-12-04T00:13:09.765Z,82.19
2018-12-04T00:15:39.732Z,82.22
2018-12-04T00:18:09.662Z,82.38
2018-12-04T00:20:39.593Z,81.85
2018-12-04T00:23:09.512Z,82.61
2018-12-04T00:25:39.494Z,82.48
2018-12-04T00:28:09.445Z,81.91
2018-12-04T00:30:39.447Z,80.88
2018-12-04T00:33:09.501Z,80.63
2018-12-04T00:35:39.437Z,81.02
2018-12-04T00:38:09.443Z,81.74
2018-12-04T00:40:39.415Z,82.21
2018-12-04T00:43:09.350Z,81.69
2018-12-04T00:45:39.429Z,82.06
2018-12-04T00:48:09.347Z,82.53
2018-12-04T00:50:39.294Z,82.63
2018-12-04T00:53:10.883Z,81.99
2018-12-04T00:55:41.640Z,82.49
2018-12-04T00:58:11.788Z,82.70
2018-12-04T01:00:41.757Z,83.08
2018-12-04T01:03:11.698Z,82.75
2018-12-04T01:05:41.682Z,82.54
2018-12-04T01:08:11.603Z,82.74
2018-12-04T01:10:41.561Z,82.75
2018-12-04T01:13:11.486Z,82.96
2018-12-04T01:15:41.440Z,82.54
2018-12-04T01:18:11.389Z,82.41
2018-12-04T01:20:41.325Z,81.46
2018-12-04T01:23:11.243Z,81.32
2018-12-04T01:25:41.193Z,81.45
2018-12-04T01:28:11.108Z,80.81
2018-12-04T01:30:41.066Z,80.51
2018-12-04T01:33:10.989Z,80.62
2018-12-04T01:35:41.051Z,81.03
2018-12-04T01:38:10.949Z,81.27
2018-12-04T01:40:40.908Z,81.24
2018-12-04T01:43:10.918Z,81.59
2018-12-04T01:45:40.989Z,81.19
2018-12-04T01:48:10.915Z,81.25
2018-12-04T01:50:42.171Z,81.09
2018-12-04T01:53:12.194Z,81.00
2018-12-04T01:55:42.168Z,81.18
2018-12-04T01:58:12.110Z,80.81
2018-12-04T02:00:42.055Z,81.11
2018-12-04T02:03:11.968Z,81.51
2018-12-04T02:05:42.164Z,81.78
2018-12-04T02:08:12.148Z,81.86
2018-12-04T02:10:42.107Z,81.44
2018-12-04T02:13:12.046Z,81.32
2018-12-04T02:15:42.013Z,81.00
2018-12-04T02:18:11.916Z,81.57
2018-12-04T02:20:41.894Z,81.70
2018-12-04T02:23:11.815Z,81.37
2018-12-04T02:25:41.767Z,81.39
2018-12-04T02:28:11.677Z,81.57
2018-12-04T02:30:41.614Z,81.26
2018-12-04T02:33:11.540Z,81.29
2018-12-04T02:35:41.527Z,81.25
2018-12-04T02:38:11.473Z,81.07
2018-12-04T02:40:41.424Z,81.18
2018-12-04T02:43:11.365Z,81.42
2018-12-04T02:45:41.305Z,81.54
2018-12-04T02:48:11.217Z,81.77
2018-12-04T02:50:41.167Z,81.70
2018-12-04T02:53:11.111Z,82.00
2018-12-04T02:55:41.080Z,81.98
2018-12-04T02:58:11.098Z,82.12
2018-12-04T03:00:41.056Z,82.13
2018-12-04T03:03:10.971Z,82.41
2018-12-04T03:05:40.922Z,82.58
2018-12-04T03:08:10.868Z,82.95
2018-12-04T03:10:40.803Z,82.58
2018-12-04T03:13:10.737Z,83.07
2018-12-04T03:15:40.757Z,83.19
2018-12-04T03:18:10.673Z,82.93
2018-12-04T03:20:40.628Z,82.90
2018-12-04T03:23:10.518Z,83.08
2018-12-04T03:25:40.511Z,83.33
2018-12-04T03:28:10.442Z,83.68
2018-12-04T03:30:40.442Z,83.93
2018-12-04T03:33:10.462Z,83.98
2018-12-04T03:35:40.385Z,83.89
2018-12-04T03:38:10.380Z,83.93
2018-12-04T03:40:40.357Z,84.00
2018-12-04T03:43:10.293Z,83.96
2018-12-04T03:45:40.232Z,83.86
2018-12-04T03:48:10.299Z,83.83
2018-12-04T03:50:40.223Z,83.90
2018-12-04T03:53:10.182Z,84.09
2018-12-04T03:55:40.108Z,84.00
2018-12-04T03:58:10.104Z,83.94
2018-12-04T04:00:40.144Z,83.96
2018-12-04T04:03:10.069Z,84.11
2018-12-04T04:05:40.034Z,84.41
2018-12-04T04:08:09.933Z,83.18
2018-12-04T04:10:39.907Z,83.71
2018-12-04T04:13:09.842Z,84.47
2018-12-04T04:15:39.961Z,84.70
2018-12-04T04:18:09.920Z,84.85
2018-12-04T04:20:39.880Z,84.68
2018-12-04T04:23:09.926Z,84.85
2018-12-04T04:25:39.879Z,84.65
2018-12-04T04:28:09.870Z,84.73
2018-12-04T04:30:39.819Z,84.59
2018-12-04T04:33:09.760Z,84.59
2018-12-04T04:35:39.681Z,84.37
2018-12-04T04:38:09.589Z,84.49
2018-12-04T04:40:39.533Z,84.04
2018-12-04T04:43:09.451Z,83.58
2018-12-04T04:45:39.385Z,83.69
2018-12-04T04:48:09.310Z,83.50
2018-12-04T04:50:39.236Z,83.17
2018-12-04T04:53:09.161Z,83.14
2018-12-04T04:55:39.203Z,83.10
2018-12-04T04:58:09.211Z,83.47
2018-12-04T05:00:39.148Z,83.75
2018-12-04T05:03:09.405Z,83.50
2018-12-04T05:05:41.604Z,83.16
2018-12-04T05:08:11.501Z,83.14
2018-12-04T05:10:41.427Z,83.10
2018-12-04T05:13:11.355Z,82.93
2018-12-04T05:15:41.377Z,82.96
2018-12-04T05:18:11.336Z,82.65
2018-12-04T05:20:41.372Z,82.85
2018-12-04T05:23:11.287Z,82.79
2018-12-04T05:25:41.232Z,82.75
2018-12-04T05:28:11.398Z,82.89
2018-12-04T05:30:41.339Z,83.08
2018-12-04T05:33:11.230Z,83.03
2018-12-04T05:35:41.160Z,82.39
2018-12-04T05:38:11.069Z,81.84
2018-12-04T05:40:41.030Z,81.68
2018-12-04T05:43:11.287Z,81.55
2018-12-04T05:46:20.449Z,81.48
2018-12-04T05:48:50.173Z,81.19
2018-12-04T05:51:19.887Z,81.44
2018-12-04T05:53:49.557Z,81.54
2018-12-04T05:56:19.436Z,81.31
2018-12-04T05:58:49.184Z,81.16
2018-12-04T06:01:19.366Z,81.04
2018-12-04T06:03:49.124Z,79.61
2018-12-04T06:06:18.852Z,79.79
2018-12-04T06:08:48.652Z,80.24
2018-12-04T06:11:18.513Z,79.85
2018-12-04T06:13:48.284Z,79.53
2018-12-04T06:16:17.962Z,78.74
2018-12-04T06:18:47.845Z,79.14
2018-12-04T06:21:17.535Z,78.98
2018-12-04T06:23:47.469Z,79.64
2018-12-04T06:26:17.764Z,79.44
2018-12-04T06:28:47.576Z,80.32
2018-12-04T06:31:17.557Z,80.40
2018-12-04T06:33:47.358Z,80.12
2018-12-04T06:36:17.172Z,80.15
2018-12-04T06:38:47.078Z,80.72
2018-12-04T06:41:16.841Z,80.87
2018-12-04T06:43:46.693Z,81.08
2018-12-04T06:46:16.465Z,81.18
2018-12-04T06:48:46.482Z,81.82
2018-12-04T06:51:16.161Z,81.62
2018-12-04T06:53:45.873Z,81.85
2018-12-04T06:56:15.725Z,81.72
2018-12-04T06:58:46.015Z,82.04
2018-12-04T07:01:15.908Z,82.22
2018-12-04T07:03:45.655Z,82.41
2018-12-04T07:06:15.588Z,82.67
2018-12-04T07:08:45.521Z,82.49
2018-12-04T07:11:16.625Z,82.90
2018-12-04T07:13:47.633Z,83.07
2018-12-04T07:16:17.604Z,82.75
2018-12-04T07:18:47.892Z,82.68
2018-12-04T07:21:18.079Z,83.45
2018-12-04T07:23:49.581Z,83.31
2018-12-04T07:26:19.242Z,83.27
2018-12-04T07:28:49.033Z,83.68
2018-12-04T07:31:19.140Z,83.66
2018-12-04T07:33:49.188Z,82.73
2018-12-04T07:36:19.961Z,83.33
2018-12-04T07:38:49.801Z,82.15
2018-12-04T07:41:19.639Z,82.03
2018-12-04T07:43:49.741Z,82.54
2018-12-04T07:46:19.464Z,82.91
2018-12-04T07:48:49.241Z,82.40
2018-12-04T07:51:19.220Z,82.36
2018-12-04T07:53:48.984Z,82.61
2018-12-04T07:56:19.507Z,81.66
2018-12-04T07:58:49.340Z,81.65
2018-12-04T08:01:19.235Z,81.66
2018-12-04T08:03:49.104Z,81.87
2018-12-04T08:06:18.849Z,81.22
2018-12-04T08:08:48.840Z,80.78
2018-12-04T08:11:18.738Z,81.33
2018-12-04T08:13:48.643Z,80.55
2018-12-04T08:16:18.489Z,80.93
2018-12-04T08:18:48.211Z,80.47
2018-12-04T08:21:17.948Z,81.12
2018-12-04T08:23:47.675Z,81.35
2018-12-04T08:26:17.589Z,80.82
2018-12-04T08:28:47.353Z,81.13
2018-12-04T08:31:17.341Z,80.07
2018-12-04T08:33:47.160Z,80.84
2018-12-04T08:36:17.051Z,80.55
2018-12-04T08:41:35.753Z,80.54
2018-12-04T08:44:05.659Z,79.84
2018-12-04T08:46:35.425Z,80.22
2018-12-04T08:49:05.529Z,78.95
2018-12-04T08:51:35.346Z,79.26
2018-12-04T08:54:05.718Z,79.14
2018-12-04T08:56:35.839Z,78.77
2018-12-04T08:59:05.851Z,78.91
2018-12-04T09:01:35.629Z,79.14
2018-12-04T09:04:05.748Z,78.53
2018-12-04T09:06:36.427Z,78.90
2018-12-04T09:09:11.343Z,77.90
2018-12-04T09:11:41.021Z,78.00
2018-12-04T09:14:10.921Z,77.72
2018-12-04T09:16:40.719Z,78.18
2018-12-04T09:19:11.096Z,78.44
2018-12-04T09:21:41.199Z,77.96
2018-12-04T09:24:11.002Z,77.58
2018-12-04T09:26:40.911Z,77.66
2018-12-04T09:29:10.733Z,77.75
2018-12-04T09:31:40.553Z,78.25
2018-12-04T09:34:10.286Z,76.64
2018-12-04T09:36:40.092Z,77.49
2018-12-04T09:39:09.975Z,77.08
2018-12-04T09:41:39.837Z,76.99
2018-12-04T09:44:09.501Z,77.30
2018-12-04T09:46:39.228Z,77.78
2018-12-04T09:49:09.199Z,77.19
2018-12-04T09:51:38.954Z,77.88
2018-12-04T09:54:08.779Z,78.09
2018-12-04T09:56:38.621Z,77.32
2018-12-04T09:59:08.562Z,76.86
2018-12-04T10:01:38.413Z,75.84
2018-12-04T10:04:08.353Z,76.58
2018-12-04T10:06:38.262Z,76.58
2018-12-04T10:09:09.666Z,76.90
2018-12-04T10:11:39.868Z,76.59
2018-12-04T10:14:09.705Z,76.02
2018-12-04T10:16:39.602Z,75.39
2018-12-04T10:19:09.315Z,75.06
2018-12-04T10:21:39.579Z,73.41
2018-12-04T10:24:09.595Z,73.60
2018-12-04T10:26:40.230Z,73.71
2018-12-04T10:29:10.166Z,72.83
2018-12-04T10:31:39.951Z,72.60
2018-12-04T10:34:09.748Z,72.66
2018-12-04T10:36:39.714Z,72.17
2018-12-04T10:39:09.846Z,71.83
2018-12-04T10:41:39.849Z,71.49
2018-12-04T10:44:09.660Z,70.38
2018-12-04T10:46:39.549Z,70.26
2018-12-04T10:49:09.265Z,70.69
2018-12-04T10:51:39.182Z,71.55
2018-12-04T10:54:09.552Z,70.00
2018-12-04T10:56:39.337Z,68.47
2018-12-04T10:59:09.203Z,68.02
2018-12-04T11:01:44.167Z,68.55
2018-12-04T11:04:14.096Z,66.33
2018-12-04T11:06:44.452Z,66.67
2018-12-04T11:09:14.296Z,66.62
2018-12-04T11:11:44.700Z,65.89
2018-12-04T11:14:14.462Z,64.76
2018-12-04T11:16:44.158Z,66.16
2018-12-04T11:19:13.904Z,65.70
2018-12-04T11:21:43.749Z,65.67
2018-12-04T11:24:13.724Z,66.47
2018-12-04T11:26:43.558Z,66.77
2018-12-04T11:29:13.451Z,66.18
2018-12-04T11:31:43.643Z,65.60
2018-12-04T11:34:13.662Z,65.18
2018-12-04T11:36:43.498Z,64.66
2018-12-04T11:39:13.424Z,69.20
2018-12-04T11:41:43.459Z,64.75
2018-12-04T11:44:13.265Z,64.65
2018-12-04T11:46:43.076Z,66.95
2018-12-04T11:49:13.032Z,68.84
2018-12-04T11:51:42.911Z,65.34
2018-12-04T11:54:12.820Z,65.08
2018-12-04T11:56:42.613Z,64.74
2018-12-04T11:59:13.296Z,63.95
2018-12-04T12:01:43.710Z,64.57
2018-12-04T12:04:13.506Z,62.64
2018-12-04T12:06:43.304Z,63.55
2018-12-04T12:09:13.034Z,65.37
2018-12-04T12:11:42.837Z,65.91
2018-12-04T12:14:12.535Z,64.60
2018-12-04T12:16:42.231Z,63.90
2018-12-04T12:19:12.009Z,64.52
2018-12-04T12:21:41.796Z,63.80
2018-12-04T12:24:12.283Z,66.06
2018-12-04T12:26:41.974Z,63.52
2018-12-04T12:29:11.813Z,62.89
2018-12-04T12:31:41.536Z,62.85
2018-12-04T12:34:11.240Z,63.61
2018-12-04T12:36:41.490Z,64.22
2018-12-04T12:39:11.252Z,64.40
2018-12-04T12:41:41.259Z,65.32
2018-12-04T12:44:11.116Z,65.18
2018-12-04T12:46:40.993Z,66.12
2018-12-04T12:49:10.856Z,66.21
2018-12-04T12:51:40.727Z,66.33
2018-12-04T12:54:10.456Z,66.49
2018-12-04T12:56:40.379Z,67.45
2018-12-04T12:59:10.042Z,67.65
2018-12-04T13:01:39.805Z,68.84
2018-12-04T13:04:09.621Z,69.00
2018-12-04T13:06:39.469Z,69.35
2018-12-04T13:09:10.075Z,69.52
2018-12-04T13:11:40.865Z,69.24
2018-12-04T13:14:10.606Z,68.65
2018-12-04T13:16:40.536Z,67.55
2018-12-04T13:19:10.427Z,67.72
2018-12-04T13:21:41.077Z,67.29
2018-12-04T13:24:11.145Z,67.77
2018-12-04T13:26:41.260Z,67.26
2018-12-04T13:29:11.109Z,67.08
2018-12-04T13:31:40.794Z,67.11
2018-12-04T13:34:10.651Z,65.36
2018-12-04T13:36:40.780Z,64.84
2018-12-04T13:39:12.157Z,66.16
2018-12-04T13:41:42.075Z,66.92
2018-12-04T13:44:12.247Z,67.39
2018-12-04T13:46:42.028Z,67.65
2018-12-04T13:49:12.019Z,67.75
2018-12-04T13:51:42.009Z,67.46
2018-12-04T13:54:11.727Z,67.44
2018-12-04T13:56:41.774Z,67.66
2018-12-04T13:59:11.526Z,67.73
2018-12-04T14:01:41.541Z,68.72
2018-12-04T14:04:11.483Z,68.20
2018-12-04T14:06:41.269Z,68.54
2018-12-04T14:09:11.074Z,68.45
2018-12-04T14:11:41.005Z,69.07
2018-12-04T14:14:10.689Z,68.29
2018-12-04T14:16:40.545Z,68.56
2018-12-04T14:19:10.317Z,68.74
2018-12-04T14:21:40.220Z,68.27
2018-12-04T14:24:09.967Z,68.85
2018-12-04T14:26:39.787Z,67.16
2018-12-04T14:29:09.654Z,67.76
2018-12-04T14:31:39.554Z,67.23
2018-12-04T14:34:09.529Z,68.15
2018-12-04T14:36:39.252Z,67.65
2018-12-04T14:39:10.884Z,68.73
2018-12-04T14:41:40.946Z,68.36
2018-12-04T14:44:10.748Z,69.09
2018-12-04T14:46:40.469Z,69.87
2018-12-04T14:49:10.387Z,68.92
2018-12-04T14:51:40.220Z,69.12
2018-12-04T14:54:10.123Z,68.89
2018-12-04T14:56:39.989Z,69.98
2018-12-04T14:59:09.684Z,70.06
2018-12-04T15:01:39.402Z,69.42
2018-12-04T15:04:09.322Z,69.39
2018-12-04T15:06:39.390Z,69.33
2018-12-04T15:09:09.587Z,69.62
2018-12-04T15:11:39.313Z,68.82
2018-12-04T15:14:09.386Z,69.24
2018-12-04T15:16:39.718Z,69.88
2018-12-04T15:19:09.459Z,69.67
2018-12-04T15:21:39.633Z,70.69
2018-12-04T15:24:09.304Z,71.07
2018-12-04T15:26:39.391Z,70.66
2018-12-04T15:29:10.147Z,70.48
2018-12-04T15:31:39.989Z,69.77
2018-12-04T15:34:10.818Z,71.17
2018-12-04T15:36:40.646Z,70.75
2018-12-04T15:39:10.735Z,71.54
2018-12-04T15:41:40.979Z,71.22
2018-12-04T15:44:10.762Z,71.74
2018-12-04T15:46:40.601Z,70.99
2018-12-04T15:49:11.295Z,71.44
2018-12-04T15:51:41.577Z,70.50
2018-12-04T15:57:00.261Z,70.83
2018-12-04T15:59:29.942Z,70.54
2018-12-04T16:01:59.710Z,70.92
2018-12-04T16:04:29.374Z,70.99
2018-12-04T16:09:47.008Z,71.51
2018-12-04T16:12:16.785Z,72.00
2018-12-04T16:14:46.521Z,72.15
2018-12-04T16:17:16.258Z,72.83
2018-12-04T16:19:46.092Z,72.52
2018-12-04T16:22:16.108Z,72.29
2018-12-04T16:24:46.998Z,73.12
2018-12-04T16:27:16.812Z,72.86
2018-12-04T16:29:46.575Z,72.24
2018-12-04T16:32:16.566Z,71.71
2018-12-04T16:34:46.254Z,71.91
2018-12-04T16:37:16.145Z,73.54
2018-12-04T16:39:47.020Z,73.45
2018-12-04T16:42:16.770Z,73.57
2018-12-04T16:44:46.442Z,73.80
2018-12-04T16:47:16.510Z,74.15
2018-12-04T16:49:46.309Z,74.45
2018-12-04T16:52:16.144Z,74.35
2018-12-04T16:54:45.980Z,74.35
2018-12-04T16:57:15.734Z,74.41
2018-12-04T16:59:45.480Z,74.96
2018-12-04T17:02:15.564Z,75.06
2018-12-04T17:04:45.326Z,74.45
2018-12-04T17:07:15.036Z,74.04
2018-12-04T17:09:45.357Z,74.24
2018-12-04T17:12:15.261Z,74.20
2018-12-04T17:14:45.034Z,74.41
2018-12-04T17:17:14.909Z,73.91
2018-12-04T17:19:44.868Z,74.38
2018-12-04T17:22:14.731Z,74.05
2018-12-04T17:24:44.557Z,74.91
2018-12-04T17:27:14.476Z,74.44
2018-12-04T17:29:44.420Z,75.21
2018-12-04T17:32:14.809Z,75.71
2018-12-04T17:34:45.539Z,76.38
2018-12-04T17:37:15.612Z,77.01
2018-12-04T17:39:45.482Z,77.77
2018-12-04T17:42:16.262Z,78.99
2018-12-04T17:44:46.194Z,78.80
2018-12-04T17:47:16.268Z,78.73
2018-12-04T17:49:46.700Z,78.02
2018-12-04T17:52:16.636Z,77.75
2018-12-04T17:54:46.619Z,78.59
2018-12-04T17:57:16.602Z,77.80
2018-12-04T17:59:46.769Z,78.75
2018-12-04T18:02:16.755Z,78.96
2018-12-04T18:04:46.512Z,78.81
2018-12-04T18:07:16.932Z,78.76
2018-12-04T18:09:46.777Z,79.26
2018-12-04T18:12:16.630Z,79.27
2018-12-04T18:14:47.316Z,80.23
2018-12-04T18:17:17.470Z,80.69
2018-12-04T18:19:47.249Z,79.91
2018-12-04T18:22:17.689Z,79.80
2018-12-04T18:24:47.491Z,80.03
2018-12-04T18:27:18.213Z,80.93
2018-12-04T18:29:48.078Z,80.82
2018-12-04T18:32:18.429Z,80.71
2018-12-04T18:34:49.298Z,81.31
2018-12-04T18:37:19.403Z,79.60
2018-12-04T18:39:49.261Z,79.80
2018-12-04T18:42:19.308Z,79.56
2018-12-04T18:44:49.239Z,80.70
2018-12-04T18:47:19.581Z,81.29
2018-12-04T18:49:49.542Z,81.76
2018-12-04T18:52:19.995Z,81.66
2018-12-04T18:54:49.881Z,82.90
2018-12-04T18:57:19.742Z,82.44
2018-12-04T18:59:49.634Z,81.65
2018-12-04T19:02:19.669Z,82.08
2018-12-04T19:04:50.695Z,81.99
2018-12-04T19:07:20.562Z,81.77
2018-12-04T19:09:50.558Z,81.53
2018-12-04T19:12:20.325Z,81.36
2018-12-04T19:14:50.830Z,80.96
2018-12-04T19:17:20.723Z,81.28
2018-12-04T19:19:50.652Z,81.51
2018-12-04T19:22:20.646Z,80.53
2018-12-04T19:24:50.441Z,80.83
2018-12-04T19:27:20.908Z,80.36
2018-12-04T19:29:50.961Z,80.85
2018-12-04T19:32:20.716Z,82.19
2018-12-04T19:34:50.725Z,81.23
2018-12-04T19:37:20.627Z,81.28
2018-12-04T19:39:50.418Z,81.88
2018-12-04T19:42:20.140Z,82.80
2018-12-04T19:44:50.121Z,81.92
2018-12-04T19:47:20.020Z,82.13
2018-12-04T19:49:49.945Z,83.08
2018-12-04T19:52:19.629Z,83.14
2018-12-04T19:54:49.467Z,82.87
2018-12-04T19:57:19.216Z,82.52
2018-12-04T19:59:48.900Z,82.53
2018-12-04T20:02:19.480Z,82.33
2018-12-04T20:04:49.424Z,81.65
2018-12-04T20:07:19.446Z,82.93
2018-12-04T20:09:49.371Z,82.76
2018-12-04T20:12:19.181Z,83.36
2018-12-04T20:14:49.569Z,83.55
2018-12-04T20:20:09.342Z,82.39
2018-12-04T20:22:39.411Z,81.83
2018-12-04T20:25:09.895Z,82.96
2018-12-04T20:27:39.858Z,83.41
2018-12-04T20:30:10.070Z,83.43
2018-12-04T20:32:40.005Z,83.04
2018-12-04T20:35:09.493Z,82.96
2018-12-04T20:37:39.246Z,82.29
2018-12-04T20:40:09.224Z,81.73
2018-12-04T20:42:39.935Z,81.83
2018-12-04T20:45:09.875Z,82.37
2018-12-04T20:47:39.567Z,83.20
2018-12-04T20:50:09.564Z,83.59
2018-12-04T20:52:39.363Z,83.39
2018-12-04T20:55:09.307Z,84.04
2018-12-04T20:57:39.960Z,84.29
2018-12-04T21:00:12.764Z,84.46
2018-12-04T21:02:42.998Z,84.22
2018-12-04T21:05:13.147Z,84.04
2018-12-04T21:07:43.067Z,83.56
2018-12-04T21:10:13.146Z,83.02
2018-12-04T21:12:42.872Z,82.74
2018-12-04T21:15:12.571Z,82.61
2018-12-04T21:17:42.614Z,82.22
2018-12-04T21:20:12.544Z,82.22
2018-12-04T21:22:42.302Z,82.85
2018-12-04T21:25:11.960Z,82.80
2018-12-04T21:27:46.862Z,82.50
2018-12-04T21:30:21.626Z,82.00
2018-12-04T21:32:56.741Z,82.07
2018-12-04T21:35:31.705Z,81.93
2018-12-04T21:38:06.674Z,82.68
2018-12-04T21:40:41.508Z,82.46
2018-12-04T21:43:16.370Z,81.88
2018-12-04T21:45:51.303Z,82.39
2018-12-04T21:48:23.048Z,82.13
2018-12-04T21:50:52.819Z,81.50
2018-12-04T21:53:22.672Z,81.59
2018-12-04T21:55:52.487Z,82.00
2018-12-04T21:58:22.894Z,82.34
2018-12-04T22:00:52.592Z,81.55
2018-12-04T22:03:22.377Z,81.47
2018-12-04T22:05:52.379Z,82.02
2018-12-04T22:08:22.322Z,81.94
2018-12-04T22:10:52.037Z,82.82
2018-12-04T22:13:21.884Z,82.98
2018-12-04T22:15:51.612Z,82.58
2018-12-04T22:18:21.272Z,82.29
2018-12-04T22:20:51.123Z,82.61
2018-12-04T22:23:20.882Z,82.12
2018-12-04T22:25:50.738Z,82.04
2018-12-04T22:28:20.625Z,82.37
2018-12-04T22:30:51.037Z,81.39
2018-12-04T22:33:20.699Z,81.77
2018-12-04T22:35:50.355Z,81.31
2018-12-04T22:38:20.244Z,81.56
2018-12-04T22:40:50.000Z,82.09
2018-12-04T22:43:19.705Z,81.59
2018-12-04T22:45:49.528Z,81.83
2018-12-04T22:48:19.422Z,81.66
2018-12-04T22:50:49.164Z,82.11
2018-12-04T22:53:18.841Z,81.72
2018-12-04T22:55:48.599Z,82.06
2018-12-04T22:58:18.383Z,81.62
2018-12-04T23:00:50.548Z,81.57
2018-12-04T23:03:20.385Z,81.54
2018-12-04T23:05:50.299Z,81.71
2018-12-04T23:08:20.075Z,81.98
2018-12-04T23:10:49.982Z,82.10
2018-12-04T23:13:19.925Z,82.20
2018-12-04T23:15:49.748Z,82.03
2018-12-04T23:18:20.137Z,82.00
2018-12-04T23:20:50.213Z,81.89
2018-12-04T23:23:20.937Z,81.79
2018-12-04T23:25:51.213Z,82.16
2018-12-04T23:28:20.956Z,82.34
2018-12-04T23:30:50.708Z,82.86
2018-12-04T23:33:20.580Z,82.80
2018-12-04T23:35:50.559Z,82.34
2018-12-04T23:38:20.294Z,82.58
2018-12-04T23:40:50.133Z,82.91
2018-12-04T23:43:20.080Z,82.94
2018-12-04T23:45:49.868Z,82.12
2018-12-04T23:48:19.868Z,82.55
2018-12-04T23:50:49.640Z,82.83
2018-12-04T23:53:19.313Z,82.91
2018-12-04T23:55:49.281Z,82.95
2018-12-04T23:58:19.139Z,83.16
